sensor_id;sensor_type;location;lat;lon;timestamp;temperature;humidity
22288;DHT22;11312;51.464;6.968;2022-12-29T00:02:13;10.20;99.90
22288;DHT22;11312;51.464;6.968;2022-12-29T00:04:39;10.30;99.90
22288;DHT22;11312;51.464;6.968;2022-12-29T00:07:05;10.20;99.90
22288;DHT22;11312;51.464;6.968;2022-12-29T00:09:31;10.30;99.90
22288;DHT22;11312;51.464;6.968;2022-12-29T00:11:58;10.30;99.90
22288;DHT22;11312;51.464;6.968;2022-12-29T00:14:23;10.20;99.90
22288;DHT22;11312;51.464;6.968;2022-12-29T00:17:08;10.20;99.90
22288;DHT22;11312;51.464;6.968;2022-12-29T00:19:33;10.20;99.90
22288;DHT22;11312;51.464;6.968;2022-12-29T00:22:18;10.10;99.90
22288;DHT22;11312;51.464;6.968;2022-12-29T00:25:03;10.10;99.90
22288;DHT22;11312;51.464;6.968;2022-12-29T00:27:48;10.10;99.90
22288;DHT22;11312;51.464;6.968;2022-12-29T00:30:32;10.00;99.90
22288;DHT22;11312;51.464;6.968;2022-12-29T00:33:19;10.00;99.90
22288;DHT22;11312;51.464;6.968;2022-12-29T00:36:07;10.00;99.90
22288;DHT22;11312;51.464;6.968;2022-12-29T00:38:35;10.10;99.90
22288;DHT22;11312;51.464;6.968;2022-12-29T00:41:20;10.10;99.90
22288;DHT22;11312;51.464;6.968;2022-12-29T00:44:06;10.10;99.90
22288;DHT22;11312;51.464;6.968;2022-12-29T00:46:40;10.10;99.90
22288;DHT22;11312;51.464;6.968;2022-12-29T00:49:07;10.10;99.90
22288;DHT22;11312;51.464;6.968;2022-12-29T00:51:54;10.10;99.90
22288;DHT22;11312;51.464;6.968;2022-12-29T00:54:20;10.10;99.90
22288;DHT22;11312;51.464;6.968;2022-12-29T00:56:50;10.10;99.90
22288;DHT22;11312;51.464;6.968;2022-12-29T00:59:16;10.10;99.90
22288;DHT22;11312;51.464;6.968;2022-12-29T01:01:43;10.10;99.90
22288;DHT22;11312;51.464;6.968;2022-12-29T01:04:09;10.10;99.90
22288;DHT22;11312;51.464;6.968;2022-12-29T01:06:36;10.10;99.90
22288;DHT22;11312;51.464;6.968;2022-12-29T01:09:03;10.10;99.90
22288;DHT22;11312;51.464;6.968;2022-12-29T01:11:47;10.10;99.90
22288;DHT22;11312;51.464;6.968;2022-12-29T01:14:13;10.10;99.90
22288;DHT22;11312;51.464;6.968;2022-12-29T01:16:39;10.10;99.90
22288;DHT22;11312;51.464;6.968;2022-12-29T01:19:04;10.10;99.90
22288;DHT22;11312;51.464;6.968;2022-12-29T01:21:30;10.20;99.90
22288;DHT22;11312;51.464;6.968;2022-12-29T01:23:56;10.30;99.90
22288;DHT22;11312;51.464;6.968;2022-12-29T01:26:21;10.30;99.90
22288;DHT22;11312;51.464;6.968;2022-12-29T01:28:47;10.40;99.90
22288;DHT22;11312;51.464;6.968;2022-12-29T01:31:14;10.40;99.90
22288;DHT22;11312;51.464;6.968;2022-12-29T01:33:41;10.50;99.90
22288;DHT22;11312;51.464;6.968;2022-12-29T01:36:11;10.60;99.90
22288;DHT22;11312;51.464;6.968;2022-12-29T01:38:38;10.60;99.90
22288;DHT22;11312;51.464;6.968;2022-12-29T01:41:04;10.70;99.90
22288;DHT22;11312;51.464;6.968;2022-12-29T01:43:50;10.70;99.90
22288;DHT22;11312;51.464;6.968;2022-12-29T01:48:42;10.60;99.90
22288;DHT22;11312;51.464;6.968;2022-12-29T01:51:08;10.60;99.90
22288;DHT22;11312;51.464;6.968;2022-12-29T01:53:36;10.70;99.90
22288;DHT22;11312;51.464;6.968;2022-12-29T01:56:05;10.80;99.90
22288;DHT22;11312;51.464;6.968;2022-12-29T01:58:35;10.90;99.90
22288;DHT22;11312;51.464;6.968;2022-12-29T02:01:04;11.00;99.90
22288;DHT22;11312;51.464;6.968;2022-12-29T02:03:30;11.00;99.90
22288;DHT22;11312;51.464;6.968;2022-12-29T02:06:23;11.00;99.90
22288;DHT22;11312;51.464;6.968;2022-12-29T02:08:52;11.20;99.90
22288;DHT22;11312;51.464;6.968;2022-12-29T02:11:19;11.10;99.90
22288;DHT22;11312;51.464;6.968;2022-12-29T02:13:46;11.20;99.90
22288;DHT22;11312;51.464;6.968;2022-12-29T02:21:45;11.30;99.90
22288;DHT22;11312;51.464;6.968;2022-12-29T02:30:06;11.20;99.90
22288;DHT22;11312;51.464;6.968;2022-12-29T02:33:04;11.30;99.90
22288;DHT22;11312;51.464;6.968;2022-12-29T02:35:43;11.40;99.90
22288;DHT22;11312;51.464;6.968;2022-12-29T02:38:19;11.40;99.90
22288;DHT22;11312;51.464;6.968;2022-12-29T02:43:29;11.50;99.90
22288;DHT22;11312;51.464;6.968;2022-12-29T02:48:47;11.40;99.90
22288;DHT22;11312;51.464;6.968;2022-12-29T02:54:18;11.60;99.90
22288;DHT22;11312;51.464;6.968;2022-12-29T02:57:02;11.50;99.90
22288;DHT22;11312;51.464;6.968;2022-12-29T02:59:28;11.50;99.90
22288;DHT22;11312;51.464;6.968;2022-12-29T03:08:07;11.50;99.90
22288;DHT22;11312;51.464;6.968;2022-12-29T03:11:05;11.60;99.90
22288;DHT22;11312;51.464;6.968;2022-12-29T03:13:56;11.50;99.90
22288;DHT22;11312;51.464;6.968;2022-12-29T03:16:59;11.50;99.90
22288;DHT22;11312;51.464;6.968;2022-12-29T03:19:30;11.60;99.90
22288;DHT22;11312;51.464;6.968;2022-12-29T03:22:08;11.60;99.90
22288;DHT22;11312;51.464;6.968;2022-12-29T03:25:14;11.60;99.90
22288;DHT22;11312;51.464;6.968;2022-12-29T03:27:50;11.50;99.90
22288;DHT22;11312;51.464;6.968;2022-12-29T03:30:16;11.40;99.90
22288;DHT22;11312;51.464;6.968;2022-12-29T03:32:47;11.50;99.90
22288;DHT22;11312;51.464;6.968;2022-12-29T03:35:16;11.60;99.90
22288;DHT22;11312;51.464;6.968;2022-12-29T03:37:50;11.70;99.90
22288;DHT22;11312;51.464;6.968;2022-12-29T03:40:17;11.70;99.90
22288;DHT22;11312;51.464;6.968;2022-12-29T03:42:44;11.70;99.90
22288;DHT22;11312;51.464;6.968;2022-12-29T03:45:10;11.70;99.90
22288;DHT22;11312;51.464;6.968;2022-12-29T03:47:36;11.70;99.90
22288;DHT22;11312;51.464;6.968;2022-12-29T03:50:02;11.50;99.90
22288;DHT22;11312;51.464;6.968;2022-12-29T03:52:27;11.50;99.90
22288;DHT22;11312;51.464;6.968;2022-12-29T03:54:53;11.60;99.90
22288;DHT22;11312;51.464;6.968;2022-12-29T03:57:19;11.50;99.90
22288;DHT22;11312;51.464;6.968;2022-12-29T03:59:44;11.70;99.90
22288;DHT22;11312;51.464;6.968;2022-12-29T04:02:10;11.80;99.90
22288;DHT22;11312;51.464;6.968;2022-12-29T04:04:35;11.70;99.90
22288;DHT22;11312;51.464;6.968;2022-12-29T04:07:02;11.80;99.90
22288;DHT22;11312;51.464;6.968;2022-12-29T04:09:27;11.70;99.90
22288;DHT22;11312;51.464;6.968;2022-12-29T04:11:53;11.80;99.90
22288;DHT22;11312;51.464;6.968;2022-12-29T04:14:19;11.80;99.90
22288;DHT22;11312;51.464;6.968;2022-12-29T04:16:44;11.90;99.90
22288;DHT22;11312;51.464;6.968;2022-12-29T04:19:10;12.00;99.90
22288;DHT22;11312;51.464;6.968;2022-12-29T04:21:35;12.00;99.90
22288;DHT22;11312;51.464;6.968;2022-12-29T04:24:01;12.00;99.90
22288;DHT22;11312;51.464;6.968;2022-12-29T04:26:27;11.90;99.90
22288;DHT22;11312;51.464;6.968;2022-12-29T04:28:52;11.90;99.90
22288;DHT22;11312;51.464;6.968;2022-12-29T04:31:18;12.10;99.90
22288;DHT22;11312;51.464;6.968;2022-12-29T04:33:43;12.00;99.90
22288;DHT22;11312;51.464;6.968;2022-12-29T04:36:09;12.00;99.90
22288;DHT22;11312;51.464;6.968;2022-12-29T04:38:35;12.10;99.90
22288;DHT22;11312;51.464;6.968;2022-12-29T04:41:00;12.10;99.90
22288;DHT22;11312;51.464;6.968;2022-12-29T04:43:27;12.10;99.90
22288;DHT22;11312;51.464;6.968;2022-12-29T04:45:52;12.20;99.90
22288;DHT22;11312;51.464;6.968;2022-12-29T04:48:18;12.20;99.90
22288;DHT22;11312;51.464;6.968;2022-12-29T04:50:46;12.20;99.90
22288;DHT22;11312;51.464;6.968;2022-12-29T04:53:13;12.20;99.90
22288;DHT22;11312;51.464;6.968;2022-12-29T04:55:38;12.20;99.90
22288;DHT22;11312;51.464;6.968;2022-12-29T04:58:04;12.30;99.90
22288;DHT22;11312;51.464;6.968;2022-12-29T05:00:29;12.30;99.90
22288;DHT22;11312;51.464;6.968;2022-12-29T05:02:55;12.20;99.90
22288;DHT22;11312;51.464;6.968;2022-12-29T05:05:20;12.30;99.90
22288;DHT22;11312;51.464;6.968;2022-12-29T05:07:46;12.30;99.90
22288;DHT22;11312;51.464;6.968;2022-12-29T05:10:12;12.10;99.90
22288;DHT22;11312;51.464;6.968;2022-12-29T05:12:38;12.30;99.90
22288;DHT22;11312;51.464;6.968;2022-12-29T05:15:06;12.20;99.90
22288;DHT22;11312;51.464;6.968;2022-12-29T05:17:33;12.10;99.90
22288;DHT22;11312;51.464;6.968;2022-12-29T05:19:58;12.10;99.90
22288;DHT22;11312;51.464;6.968;2022-12-29T05:22:24;12.20;99.90
22288;DHT22;11312;51.464;6.968;2022-12-29T05:24:50;12.30;99.90
22288;DHT22;11312;51.464;6.968;2022-12-29T05:27:16;12.30;99.90
22288;DHT22;11312;51.464;6.968;2022-12-29T05:29:41;12.20;99.90
22288;DHT22;11312;51.464;6.968;2022-12-29T05:32:07;12.10;99.90
22288;DHT22;11312;51.464;6.968;2022-12-29T05:34:32;12.00;99.90
22288;DHT22;11312;51.464;6.968;2022-12-29T05:36:58;12.10;99.90
22288;DHT22;11312;51.464;6.968;2022-12-29T05:39:24;12.20;99.90
22288;DHT22;11312;51.464;6.968;2022-12-29T05:41:49;12.00;99.90
22288;DHT22;11312;51.464;6.968;2022-12-29T05:44:15;12.10;99.90
22288;DHT22;11312;51.464;6.968;2022-12-29T05:46:40;12.20;99.90
22288;DHT22;11312;51.464;6.968;2022-12-29T05:49:06;12.10;99.90
22288;DHT22;11312;51.464;6.968;2022-12-29T05:51:32;12.00;99.90
22288;DHT22;11312;51.464;6.968;2022-12-29T05:53:57;11.90;99.90
22288;DHT22;11312;51.464;6.968;2022-12-29T05:56:23;11.80;99.90
22288;DHT22;11312;51.464;6.968;2022-12-29T05:58:49;11.70;99.90
22288;DHT22;11312;51.464;6.968;2022-12-29T06:01:15;11.70;99.90
22288;DHT22;11312;51.464;6.968;2022-12-29T06:03:40;11.50;99.90
22288;DHT22;11312;51.464;6.968;2022-12-29T06:06:06;11.40;99.90
22288;DHT22;11312;51.464;6.968;2022-12-29T06:08:32;11.40;99.90
22288;DHT22;11312;51.464;6.968;2022-12-29T06:10:58;11.40;99.90
22288;DHT22;11312;51.464;6.968;2022-12-29T06:13:23;11.40;99.90
22288;DHT22;11312;51.464;6.968;2022-12-29T06:15:50;11.40;99.90
22288;DHT22;11312;51.464;6.968;2022-12-29T06:18:16;11.30;99.90
22288;DHT22;11312;51.464;6.968;2022-12-29T06:20:41;11.10;99.90
22288;DHT22;11312;51.464;6.968;2022-12-29T06:23:08;11.00;99.90
22288;DHT22;11312;51.464;6.968;2022-12-29T06:25:33;10.90;99.90
22288;DHT22;11312;51.464;6.968;2022-12-29T06:28:02;10.80;99.90
22288;DHT22;11312;51.464;6.968;2022-12-29T06:30:28;10.70;99.90
22288;DHT22;11312;51.464;6.968;2022-12-29T06:32:53;10.70;99.90
22288;DHT22;11312;51.464;6.968;2022-12-29T06:35:20;10.90;99.90
22288;DHT22;11312;51.464;6.968;2022-12-29T06:37:48;11.00;99.90
22288;DHT22;11312;51.464;6.968;2022-12-29T06:40:14;11.00;99.90
22288;DHT22;11312;51.464;6.968;2022-12-29T06:42:40;11.20;99.90
22288;DHT22;11312;51.464;6.968;2022-12-29T06:45:06;11.30;99.90
22288;DHT22;11312;51.464;6.968;2022-12-29T06:47:33;11.40;99.90
22288;DHT22;11312;51.464;6.968;2022-12-29T06:49:59;11.60;99.90
22288;DHT22;11312;51.464;6.968;2022-12-29T06:52:25;11.60;99.90
22288;DHT22;11312;51.464;6.968;2022-12-29T06:54:51;11.60;99.90
22288;DHT22;11312;51.464;6.968;2022-12-29T06:57:17;11.60;99.90
22288;DHT22;11312;51.464;6.968;2022-12-29T06:59:42;11.70;99.90
22288;DHT22;11312;51.464;6.968;2022-12-29T07:02:10;11.60;99.90
22288;DHT22;11312;51.464;6.968;2022-12-29T07:04:36;11.60;99.90
22288;DHT22;11312;51.464;6.968;2022-12-29T07:07:02;11.60;99.90
22288;DHT22;11312;51.464;6.968;2022-12-29T07:09:27;11.50;99.90
22288;DHT22;11312;51.464;6.968;2022-12-29T07:11:53;11.50;99.90
22288;DHT22;11312;51.464;6.968;2022-12-29T07:14:19;11.70;99.90
22288;DHT22;11312;51.464;6.968;2022-12-29T07:16:44;11.70;99.90
22288;DHT22;11312;51.464;6.968;2022-12-29T07:19:10;11.70;99.90
22288;DHT22;11312;51.464;6.968;2022-12-29T07:21:35;11.70;99.90
22288;DHT22;11312;51.464;6.968;2022-12-29T07:24:01;11.70;99.90
22288;DHT22;11312;51.464;6.968;2022-12-29T07:26:27;11.60;99.90
22288;DHT22;11312;51.464;6.968;2022-12-29T07:28:52;11.60;99.90
22288;DHT22;11312;51.464;6.968;2022-12-29T07:31:21;11.60;99.90
22288;DHT22;11312;51.464;6.968;2022-12-29T07:33:48;11.60;99.90
22288;DHT22;11312;51.464;6.968;2022-12-29T07:36:14;11.60;99.90
22288;DHT22;11312;51.464;6.968;2022-12-29T07:38:41;11.60;99.90
22288;DHT22;11312;51.464;6.968;2022-12-29T07:41:07;11.60;99.90
22288;DHT22;11312;51.464;6.968;2022-12-29T07:43:33;11.70;99.90
22288;DHT22;11312;51.464;6.968;2022-12-29T07:45:58;11.60;99.90
22288;DHT22;11312;51.464;6.968;2022-12-29T07:48:24;11.70;99.90
22288;DHT22;11312;51.464;6.968;2022-12-29T07:50:50;11.80;99.90
22288;DHT22;11312;51.464;6.968;2022-12-29T07:53:15;11.60;99.90
22288;DHT22;11312;51.464;6.968;2022-12-29T07:55:41;11.70;99.90
22288;DHT22;11312;51.464;6.968;2022-12-29T07:58:07;11.60;99.90
22288;DHT22;11312;51.464;6.968;2022-12-29T08:00:32;11.60;99.90
22288;DHT22;11312;51.464;6.968;2022-12-29T08:02:58;11.60;99.90
22288;DHT22;11312;51.464;6.968;2022-12-29T08:05:24;11.60;99.90
22288;DHT22;11312;51.464;6.968;2022-12-29T08:07:49;11.50;99.90
22288;DHT22;11312;51.464;6.968;2022-12-29T08:10:15;11.60;99.90
22288;DHT22;11312;51.464;6.968;2022-12-29T08:12:41;11.50;99.90
22288;DHT22;11312;51.464;6.968;2022-12-29T08:15:09;11.50;99.90
22288;DHT22;11312;51.464;6.968;2022-12-29T08:17:35;11.50;99.90
22288;DHT22;11312;51.464;6.968;2022-12-29T08:20:01;11.60;99.90
22288;DHT22;11312;51.464;6.968;2022-12-29T08:22:27;11.50;99.90
22288;DHT22;11312;51.464;6.968;2022-12-29T08:24:52;11.50;99.90
22288;DHT22;11312;51.464;6.968;2022-12-29T08:27:18;11.50;99.90
22288;DHT22;11312;51.464;6.968;2022-12-29T08:29:44;11.50;99.90
22288;DHT22;11312;51.464;6.968;2022-12-29T08:32:11;11.50;99.90
22288;DHT22;11312;51.464;6.968;2022-12-29T08:34:36;11.50;99.90
22288;DHT22;11312;51.464;6.968;2022-12-29T08:37:02;11.60;99.90
22288;DHT22;11312;51.464;6.968;2022-12-29T08:39:28;11.50;99.90
22288;DHT22;11312;51.464;6.968;2022-12-29T08:41:54;11.50;99.90
22288;DHT22;11312;51.464;6.968;2022-12-29T08:44:19;11.40;99.90
22288;DHT22;11312;51.464;6.968;2022-12-29T08:46:45;11.60;99.90
22288;DHT22;11312;51.464;6.968;2022-12-29T08:49:10;11.50;99.90
22288;DHT22;11312;51.464;6.968;2022-12-29T08:51:36;11.50;99.90
22288;DHT22;11312;51.464;6.968;2022-12-29T08:54:02;11.30;99.90
22288;DHT22;11312;51.464;6.968;2022-12-29T08:56:28;11.10;99.90
22288;DHT22;11312;51.464;6.968;2022-12-29T08:58:54;11.00;99.90
22288;DHT22;11312;51.464;6.968;2022-12-29T09:01:20;11.10;99.90
22288;DHT22;11312;51.464;6.968;2022-12-29T09:03:46;10.90;99.90
22288;DHT22;11312;51.464;6.968;2022-12-29T09:06:13;10.80;99.90
22288;DHT22;11312;51.464;6.968;2022-12-29T09:08:39;10.70;99.90
22288;DHT22;11312;51.464;6.968;2022-12-29T09:13:34;10.90;99.90
22288;DHT22;11312;51.464;6.968;2022-12-29T09:16:00;11.00;99.90
22288;DHT22;11312;51.464;6.968;2022-12-29T09:18:25;11.20;99.90
22288;DHT22;11312;51.464;6.968;2022-12-29T09:20:59;11.30;99.90
22288;DHT22;11312;51.464;6.968;2022-12-29T09:23:25;11.40;99.90
22288;DHT22;11312;51.464;6.968;2022-12-29T09:25:52;11.50;99.90
22288;DHT22;11312;51.464;6.968;2022-12-29T09:28:18;11.70;99.90
22288;DHT22;11312;51.464;6.968;2022-12-29T09:30:43;11.60;99.90
22288;DHT22;11312;51.464;6.968;2022-12-29T09:33:09;11.60;99.90
22288;DHT22;11312;51.464;6.968;2022-12-29T09:35:34;11.50;99.90
22288;DHT22;11312;51.464;6.968;2022-12-29T09:38:00;11.40;99.90
22288;DHT22;11312;51.464;6.968;2022-12-29T09:40:31;11.40;99.90
22288;DHT22;11312;51.464;6.968;2022-12-29T09:46:46;11.40;99.90
22288;DHT22;11312;51.464;6.968;2022-12-29T09:49:35;11.40;99.90
22288;DHT22;11312;51.464;6.968;2022-12-29T09:52:14;11.40;99.90
22288;DHT22;11312;51.464;6.968;2022-12-29T09:54:51;11.40;99.90
22288;DHT22;11312;51.464;6.968;2022-12-29T09:57:32;11.40;99.90
22288;DHT22;11312;51.464;6.968;2022-12-29T10:00:03;11.40;99.90
22288;DHT22;11312;51.464;6.968;2022-12-29T10:02:46;11.50;99.90
22288;DHT22;11312;51.464;6.968;2022-12-29T10:05:23;11.50;99.90
22288;DHT22;11312;51.464;6.968;2022-12-29T10:08:07;11.40;99.90
22288;DHT22;11312;51.464;6.968;2022-12-29T10:11:05;11.50;99.90
22288;DHT22;11312;51.464;6.968;2022-12-29T10:13:40;11.50;99.90
22288;DHT22;11312;51.464;6.968;2022-12-29T10:22:07;11.50;99.90
22288;DHT22;11312;51.464;6.968;2022-12-29T10:24:38;11.50;99.90
22288;DHT22;11312;51.464;6.968;2022-12-29T10:27:09;11.50;99.90
22288;DHT22;11312;51.464;6.968;2022-12-29T10:29:44;11.50;99.90
22288;DHT22;11312;51.464;6.968;2022-12-29T10:32:33;11.50;99.90
22288;DHT22;11312;51.464;6.968;2022-12-29T10:35:22;11.60;99.90
22288;DHT22;11312;51.464;6.968;2022-12-29T10:38:01;11.60;99.90
22288;DHT22;11312;51.464;6.968;2022-12-29T10:40:38;11.60;99.90
22288;DHT22;11312;51.464;6.968;2022-12-29T10:43:37;11.50;99.90
22288;DHT22;11312;51.464;6.968;2022-12-29T10:46:10;11.40;99.90
22288;DHT22;11312;51.464;6.968;2022-12-29T10:48:36;11.50;99.90
22288;DHT22;11312;51.464;6.968;2022-12-29T10:51:05;11.50;99.90
22288;DHT22;11312;51.464;6.968;2022-12-29T10:53:43;11.40;99.90
22288;DHT22;11312;51.464;6.968;2022-12-29T10:56:50;11.50;99.90
22288;DHT22;11312;51.464;6.968;2022-12-29T10:59:22;11.50;99.90
22288;DHT22;11312;51.464;6.968;2022-12-29T11:07:11;11.60;99.90
22288;DHT22;11312;51.464;6.968;2022-12-29T11:09:38;11.60;99.90
22288;DHT22;11312;51.464;6.968;2022-12-29T11:12:25;11.60;99.90
22288;DHT22;11312;51.464;6.968;2022-12-29T11:17:51;11.60;99.90
22288;DHT22;11312;51.464;6.968;2022-12-29T11:20:32;11.70;99.90
22288;DHT22;11312;51.464;6.968;2022-12-29T11:22:58;11.70;99.90
22288;DHT22;11312;51.464;6.968;2022-12-29T11:25:25;11.60;99.90
22288;DHT22;11312;51.464;6.968;2022-12-29T11:28:14;11.60;99.90
22288;DHT22;11312;51.464;6.968;2022-12-29T11:30:40;11.70;99.90
22288;DHT22;11312;51.464;6.968;2022-12-29T11:33:06;11.70;99.90
22288;DHT22;11312;51.464;6.968;2022-12-29T11:35:40;11.60;99.90
22288;DHT22;11312;51.464;6.968;2022-12-29T11:38:24;11.60;99.90
22288;DHT22;11312;51.464;6.968;2022-12-29T11:40:51;11.70;99.90
22288;DHT22;11312;51.464;6.968;2022-12-29T11:43:38;11.70;99.90
22288;DHT22;11312;51.464;6.968;2022-12-29T11:46:05;11.70;99.90
22288;DHT22;11312;51.464;6.968;2022-12-29T11:48:41;12.00;99.90
22288;DHT22;11312;51.464;6.968;2022-12-29T11:51:08;12.00;99.90
22288;DHT22;11312;51.464;6.968;2022-12-29T11:53:45;11.90;99.90
22288;DHT22;11312;51.464;6.968;2022-12-29T11:56:17;11.80;99.90
22288;DHT22;11312;51.464;6.968;2022-12-29T11:58:44;11.70;99.90
22288;DHT22;11312;51.464;6.968;2022-12-29T12:01:11;11.70;99.90
22288;DHT22;11312;51.464;6.968;2022-12-29T12:03:44;11.70;99.90
22288;DHT22;11312;51.464;6.968;2022-12-29T12:06:15;11.80;99.90
22288;DHT22;11312;51.464;6.968;2022-12-29T12:09:38;11.90;99.90
22288;DHT22;11312;51.464;6.968;2022-12-29T12:11:45;12.10;99.90
22288;DHT22;11312;51.464;6.968;2022-12-29T12:14:36;12.10;99.90
22288;DHT22;11312;51.464;6.968;2022-12-29T12:17:11;12.20;99.90
22288;DHT22;11312;51.464;6.968;2022-12-29T12:20:02;12.10;99.90
22288;DHT22;11312;51.464;6.968;2022-12-29T12:22:37;11.90;99.90
22288;DHT22;11312;51.464;6.968;2022-12-29T12:25:05;11.70;99.90
22288;DHT22;11312;51.464;6.968;2022-12-29T12:27:38;11.70;99.90
22288;DHT22;11312;51.464;6.968;2022-12-29T12:33:04;11.60;99.90
22288;DHT22;11312;51.464;6.968;2022-12-29T12:41:11;11.60;99.90
22288;DHT22;11312;51.464;6.968;2022-12-29T12:44:00;11.50;99.90
22288;DHT22;11312;51.464;6.968;2022-12-29T13:00:44;11.50;99.90
22288;DHT22;11312;51.464;6.968;2022-12-29T13:04:06;11.50;99.90
22288;DHT22;11312;51.464;6.968;2022-12-29T13:09:53;11.50;99.90
22288;DHT22;11312;51.464;6.968;2022-12-29T13:12:27;11.50;99.90
22288;DHT22;11312;51.464;6.968;2022-12-29T13:15:08;11.50;99.90
22288;DHT22;11312;51.464;6.968;2022-12-29T13:18:02;11.60;99.90
22288;DHT22;11312;51.464;6.968;2022-12-29T13:20:47;11.60;99.90
22288;DHT22;11312;51.464;6.968;2022-12-29T13:26:18;11.60;99.90
22288;DHT22;11312;51.464;6.968;2022-12-29T13:35:08;11.40;99.90
22288;DHT22;11312;51.464;6.968;2022-12-29T13:37:19;11.50;99.90
22288;DHT22;11312;51.464;6.968;2022-12-29T13:39:50;11.50;99.90
22288;DHT22;11312;51.464;6.968;2022-12-29T13:42:19;11.40;99.90
22288;DHT22;11312;51.464;6.968;2022-12-29T13:45:22;11.30;99.90
22288;DHT22;11312;51.464;6.968;2022-12-29T13:50:21;11.30;99.90
22288;DHT22;11312;51.464;6.968;2022-12-29T13:53:10;11.20;99.90
22288;DHT22;11312;51.464;6.968;2022-12-29T13:55:51;11.20;99.90
22288;DHT22;11312;51.464;6.968;2022-12-29T14:01:00;11.20;99.90
22288;DHT22;11312;51.464;6.968;2022-12-29T14:03:47;11.20;99.90
22288;DHT22;11312;51.464;6.968;2022-12-29T14:08:57;11.10;99.90
22288;DHT22;11312;51.464;6.968;2022-12-29T14:11:33;11.10;99.90
22288;DHT22;11312;51.464;6.968;2022-12-29T14:14:11;11.20;99.90
22288;DHT22;11312;51.464;6.968;2022-12-29T14:16:38;11.10;99.90
22288;DHT22;11312;51.464;6.968;2022-12-29T14:19:10;11.10;99.90
22288;DHT22;11312;51.464;6.968;2022-12-29T14:21:37;11.10;99.90
22288;DHT22;11312;51.464;6.968;2022-12-29T14:26:54;11.00;99.90
22288;DHT22;11312;51.464;6.968;2022-12-29T14:31:54;11.00;99.90
22288;DHT22;11312;51.464;6.968;2022-12-29T14:37:00;10.80;99.90
22288;DHT22;11312;51.464;6.968;2022-12-29T14:44:56;10.90;99.90
22288;DHT22;11312;51.464;6.968;2022-12-29T14:47:34;10.90;99.90
22288;DHT22;11312;51.464;6.968;2022-12-29T14:50:17;10.90;99.90
22288;DHT22;11312;51.464;6.968;2022-12-29T14:53:01;11.00;99.90
22288;DHT22;11312;51.464;6.968;2022-12-29T14:55:35;11.00;99.90
22288;DHT22;11312;51.464;6.968;2022-12-29T14:58:04;11.00;99.90
22288;DHT22;11312;51.464;6.968;2022-12-29T15:00:34;11.00;99.90
22288;DHT22;11312;51.464;6.968;2022-12-29T15:05:47;10.90;99.90
22288;DHT22;11312;51.464;6.968;2022-12-29T15:08:18;11.00;99.90
22288;DHT22;11312;51.464;6.968;2022-12-29T15:11:03;10.90;99.90
22288;DHT22;11312;51.464;6.968;2022-12-29T15:13:35;11.00;99.90
22288;DHT22;11312;51.464;6.968;2022-12-29T15:16:01;10.90;99.90
22288;DHT22;11312;51.464;6.968;2022-12-29T15:18:32;10.90;99.90
22288;DHT22;11312;51.464;6.968;2022-12-29T15:21:04;10.90;99.90
22288;DHT22;11312;51.464;6.968;2022-12-29T15:23:32;10.90;99.90
22288;DHT22;11312;51.464;6.968;2022-12-29T15:28:26;10.90;99.90
22288;DHT22;11312;51.464;6.968;2022-12-29T15:31:01;10.80;99.90
22288;DHT22;11312;51.464;6.968;2022-12-29T15:33:28;10.80;99.90
22288;DHT22;11312;51.464;6.968;2022-12-29T15:35:56;10.80;99.90
22288;DHT22;11312;51.464;6.968;2022-12-29T15:38:29;10.80;99.90
22288;DHT22;11312;51.464;6.968;2022-12-29T15:41:03;10.60;99.90
22288;DHT22;11312;51.464;6.968;2022-12-29T15:46:17;10.70;99.90
22288;DHT22;11312;51.464;6.968;2022-12-29T15:48:43;10.70;99.90
22288;DHT22;11312;51.464;6.968;2022-12-29T15:51:36;10.70;99.90
22288;DHT22;11312;51.464;6.968;2022-12-29T15:54:03;10.70;99.90
22288;DHT22;11312;51.464;6.968;2022-12-29T15:56:30;10.70;99.90
22288;DHT22;11312;51.464;6.968;2022-12-29T15:58:56;10.70;99.90
22288;DHT22;11312;51.464;6.968;2022-12-29T16:01:35;10.60;99.90
22288;DHT22;11312;51.464;6.968;2022-12-29T16:04:05;10.70;99.90
22288;DHT22;11312;51.464;6.968;2022-12-29T16:06:36;10.60;99.90
22288;DHT22;11312;51.464;6.968;2022-12-29T16:09:11;10.60;99.90
22288;DHT22;11312;51.464;6.968;2022-12-29T16:11:46;10.50;99.90
22288;DHT22;11312;51.464;6.968;2022-12-29T16:17:23;10.30;99.90
22288;DHT22;11312;51.464;6.968;2022-12-29T16:19:57;10.20;99.90
22288;DHT22;11312;51.464;6.968;2022-12-29T16:22:38;10.20;99.90
22288;DHT22;11312;51.464;6.968;2022-12-29T16:25:31;10.10;99.90
22288;DHT22;11312;51.464;6.968;2022-12-29T16:28:21;10.00;99.90
22288;DHT22;11312;51.464;6.968;2022-12-29T16:31:04;9.90;99.90
22288;DHT22;11312;51.464;6.968;2022-12-29T16:33:53;9.90;99.90
22288;DHT22;11312;51.464;6.968;2022-12-29T16:36:27;9.90;99.90
22288;DHT22;11312;51.464;6.968;2022-12-29T16:41:51;9.90;99.90
22288;DHT22;11312;51.464;6.968;2022-12-29T16:47:31;9.90;99.90
22288;DHT22;11312;51.464;6.968;2022-12-29T16:50:17;9.90;99.90
22288;DHT22;11312;51.464;6.968;2022-12-29T16:52:50;10.00;99.90
22288;DHT22;11312;51.464;6.968;2022-12-29T16:55:20;10.00;99.90
22288;DHT22;11312;51.464;6.968;2022-12-29T16:57:52;10.00;99.90
22288;DHT22;11312;51.464;6.968;2022-12-29T17:00:29;10.00;99.90
22288;DHT22;11312;51.464;6.968;2022-12-29T17:03:03;10.00;99.90
22288;DHT22;11312;51.464;6.968;2022-12-29T17:05:32;10.00;99.90
22288;DHT22;11312;51.464;6.968;2022-12-29T17:08:25;10.10;99.90
22288;DHT22;11312;51.464;6.968;2022-12-29T17:10:58;10.10;99.90
22288;DHT22;11312;51.464;6.968;2022-12-29T17:13:47;10.00;99.90
22288;DHT22;11312;51.464;6.968;2022-12-29T17:16:22;9.60;99.90
22288;DHT22;11312;51.464;6.968;2022-12-29T17:18:55;9.30;99.90
22288;DHT22;11312;51.464;6.968;2022-12-29T17:21:27;9.10;99.90
22288;DHT22;11312;51.464;6.968;2022-12-29T17:23:59;8.90;99.90
22288;DHT22;11312;51.464;6.968;2022-12-29T17:26:31;8.70;99.90
22288;DHT22;11312;51.464;6.968;2022-12-29T17:29:03;8.60;99.90
22288;DHT22;11312;51.464;6.968;2022-12-29T17:31:33;8.50;99.90
22288;DHT22;11312;51.464;6.968;2022-12-29T17:34:10;8.30;99.90
22288;DHT22;11312;51.464;6.968;2022-12-29T17:36:43;8.20;99.90
22288;DHT22;11312;51.464;6.968;2022-12-29T17:39:17;8.20;99.90
22288;DHT22;11312;51.464;6.968;2022-12-29T17:41:54;8.00;99.90
22288;DHT22;11312;51.464;6.968;2022-12-29T17:44:28;8.00;99.90
22288;DHT22;11312;51.464;6.968;2022-12-29T17:47:03;7.90;99.90
22288;DHT22;11312;51.464;6.968;2022-12-29T17:49:36;7.90;99.90
22288;DHT22;11312;51.464;6.968;2022-12-29T17:52:05;8.00;99.90
22288;DHT22;11312;51.464;6.968;2022-12-29T17:54:37;7.90;99.90
22288;DHT22;11312;51.464;6.968;2022-12-29T17:57:17;7.90;99.90
22288;DHT22;11312;51.464;6.968;2022-12-29T17:59:51;8.00;99.90
22288;DHT22;11312;51.464;6.968;2022-12-29T18:02:30;7.90;99.90